sensor_id;sensor_type;location;lat;lon;timestamp;temperature;humidity
37788;DHT22;23627;53.302;-6.362;2022-08-19T00:01:29;15.10;99.90
37788;DHT22;23627;53.302;-6.362;2022-08-19T00:04:00;15.00;99.90
37788;DHT22;23627;53.302;-6.362;2022-08-19T00:06:27;15.00;99.90
37788;DHT22;23627;53.302;-6.362;2022-08-19T00:08:53;15.00;99.90
37788;DHT22;23627;53.302;-6.362;2022-08-19T00:11:19;15.00;99.90
37788;DHT22;23627;53.302;-6.362;2022-08-19T00:13:46;14.90;99.90
37788;DHT22;23627;53.302;-6.362;2022-08-19T00:16:14;14.90;99.90
37788;DHT22;23627;53.302;-6.362;2022-08-19T00:18:40;14.90;99.90
37788;DHT22;23627;53.302;-6.362;2022-08-19T00:21:06;14.90;99.90
37788;DHT22;23627;53.302;-6.362;2022-08-19T00:23:34;14.90;99.90
37788;DHT22;23627;53.302;-6.362;2022-08-19T00:26:04;14.80;99.90
37788;DHT22;23627;53.302;-6.362;2022-08-19T00:28:31;14.90;99.90
37788;DHT22;23627;53.302;-6.362;2022-08-19T00:30:58;14.80;99.90
37788;DHT22;23627;53.302;-6.362;2022-08-19T00:33:24;14.90;99.90
37788;DHT22;23627;53.302;-6.362;2022-08-19T00:35:50;14.90;99.90
37788;DHT22;23627;53.302;-6.362;2022-08-19T00:38:16;14.80;99.90
37788;DHT22;23627;53.302;-6.362;2022-08-19T00:40:45;14.80;99.90
37788;DHT22;23627;53.302;-6.362;2022-08-19T00:43:13;14.70;99.90
37788;DHT22;23627;53.302;-6.362;2022-08-19T00:45:43;14.70;99.90
37788;DHT22;23627;53.302;-6.362;2022-08-19T00:48:10;14.70;99.90
37788;DHT22;23627;53.302;-6.362;2022-08-19T00:50:36;14.70;99.90
37788;DHT22;23627;53.302;-6.362;2022-08-19T00:53:06;14.70;99.90
37788;DHT22;23627;53.302;-6.362;2022-08-19T00:55:33;14.70;99.90
37788;DHT22;23627;53.302;-6.362;2022-08-19T00:58:03;14.70;99.90
37788;DHT22;23627;53.302;-6.362;2022-08-19T01:00:31;14.60;99.90
37788;DHT22;23627;53.302;-6.362;2022-08-19T01:02:58;14.60;99.90
37788;DHT22;23627;53.302;-6.362;2022-08-19T01:05:26;14.50;99.90
37788;DHT22;23627;53.302;-6.362;2022-08-19T01:07:54;14.60;99.90
37788;DHT22;23627;53.302;-6.362;2022-08-19T01:10:24;14.50;99.90
37788;DHT22;23627;53.302;-6.362;2022-08-19T01:12:51;14.50;99.90
37788;DHT22;23627;53.302;-6.362;2022-08-19T01:15:23;14.40;99.90
37788;DHT22;23627;53.302;-6.362;2022-08-19T01:17:50;14.40;99.90
37788;DHT22;23627;53.302;-6.362;2022-08-19T01:20:20;14.40;99.90
37788;DHT22;23627;53.302;-6.362;2022-08-19T01:22:53;14.40;99.90
37788;DHT22;23627;53.302;-6.362;2022-08-19T01:25:24;14.40;99.90
37788;DHT22;23627;53.302;-6.362;2022-08-19T01:27:51;14.30;99.90
37788;DHT22;23627;53.302;-6.362;2022-08-19T01:30:22;14.40;99.90
37788;DHT22;23627;53.302;-6.362;2022-08-19T01:32:50;14.40;99.90
37788;DHT22;23627;53.302;-6.362;2022-08-19T01:35:16;14.30;99.90
37788;DHT22;23627;53.302;-6.362;2022-08-19T01:37:51;14.30;99.90
37788;DHT22;23627;53.302;-6.362;2022-08-19T01:40:18;14.40;99.90
37788;DHT22;23627;53.302;-6.362;2022-08-19T01:42:47;14.40;99.90
37788;DHT22;23627;53.302;-6.362;2022-08-19T01:45:13;14.40;99.90
37788;DHT22;23627;53.302;-6.362;2022-08-19T01:47:39;14.40;99.90
37788;DHT22;23627;53.302;-6.362;2022-08-19T01:50:08;14.40;99.90
37788;DHT22;23627;53.302;-6.362;2022-08-19T01:52:39;14.40;99.90
37788;DHT22;23627;53.302;-6.362;2022-08-19T01:55:07;14.40;99.90
37788;DHT22;23627;53.302;-6.362;2022-08-19T01:57:34;14.40;99.90
37788;DHT22;23627;53.302;-6.362;2022-08-19T02:00:00;14.50;99.90
37788;DHT22;23627;53.302;-6.362;2022-08-19T02:02:27;14.50;99.90
37788;DHT22;23627;53.302;-6.362;2022-08-19T02:04:53;14.50;99.90
37788;DHT22;23627;53.302;-6.362;2022-08-19T02:07:20;14.50;99.90
37788;DHT22;23627;53.302;-6.362;2022-08-19T02:09:47;14.50;99.90
37788;DHT22;23627;53.302;-6.362;2022-08-19T02:12:13;14.60;99.90
37788;DHT22;23627;53.302;-6.362;2022-08-19T02:14:39;14.50;99.90
37788;DHT22;23627;53.302;-6.362;2022-08-19T02:17:05;14.50;99.90
37788;DHT22;23627;53.302;-6.362;2022-08-19T02:19:32;14.50;99.90
37788;DHT22;23627;53.302;-6.362;2022-08-19T02:21:58;14.50;99.90
37788;DHT22;23627;53.302;-6.362;2022-08-19T02:24:25;14.50;99.90
37788;DHT22;23627;53.302;-6.362;2022-08-19T02:26:51;14.50;99.90
37788;DHT22;23627;53.302;-6.362;2022-08-19T02:29:16;14.50;99.90
37788;DHT22;23627;53.302;-6.362;2022-08-19T02:31:42;14.50;99.90
37788;DHT22;23627;53.302;-6.362;2022-08-19T02:34:08;14.50;99.90
37788;DHT22;23627;53.302;-6.362;2022-08-19T02:36:34;14.50;99.90
37788;DHT22;23627;53.302;-6.362;2022-08-19T02:39:00;14.40;99.90
37788;DHT22;23627;53.302;-6.362;2022-08-19T02:41:29;14.50;99.90
37788;DHT22;23627;53.302;-6.362;2022-08-19T02:43:56;14.50;99.90
37788;DHT22;23627;53.302;-6.362;2022-08-19T02:46:28;14.50;99.90
37788;DHT22;23627;53.302;-6.362;2022-08-19T02:48:57;14.50;99.90
37788;DHT22;23627;53.302;-6.362;2022-08-19T02:51:31;14.40;99.90
37788;DHT22;23627;53.302;-6.362;2022-08-19T02:53:57;14.40;99.90
37788;DHT22;23627;53.302;-6.362;2022-08-19T02:56:25;14.40;99.90
37788;DHT22;23627;53.302;-6.362;2022-08-19T02:58:54;14.30;99.90
37788;DHT22;23627;53.302;-6.362;2022-08-19T03:01:31;14.40;99.90
37788;DHT22;23627;53.302;-6.362;2022-08-19T03:03:59;14.40;99.90
37788;DHT22;23627;53.302;-6.362;2022-08-19T03:06:26;14.40;99.90
37788;DHT22;23627;53.302;-6.362;2022-08-19T03:08:52;14.40;99.90
37788;DHT22;23627;53.302;-6.362;2022-08-19T03:11:20;14.40;99.90
37788;DHT22;23627;53.302;-6.362;2022-08-19T03:13:46;14.40;99.90
37788;DHT22;23627;53.302;-6.362;2022-08-19T03:16:12;14.40;99.90
37788;DHT22;23627;53.302;-6.362;2022-08-19T03:18:38;14.30;99.90
37788;DHT22;23627;53.302;-6.362;2022-08-19T03:21:05;14.20;99.90
37788;DHT22;23627;53.302;-6.362;2022-08-19T03:23:31;14.20;99.90
37788;DHT22;23627;53.302;-6.362;2022-08-19T03:25:57;14.30;99.90
37788;DHT22;23627;53.302;-6.362;2022-08-19T03:28:23;14.20;99.90
37788;DHT22;23627;53.302;-6.362;2022-08-19T03:31:00;14.30;99.90
37788;DHT22;23627;53.302;-6.362;2022-08-19T03:33:29;14.20;99.90
37788;DHT22;23627;53.302;-6.362;2022-08-19T03:36:13;14.20;99.90
37788;DHT22;23627;53.302;-6.362;2022-08-19T03:38:48;14.20;99.90
37788;DHT22;23627;53.302;-6.362;2022-08-19T03:41:17;14.20;99.90
37788;DHT22;23627;53.302;-6.362;2022-08-19T03:43:44;14.20;99.90
37788;DHT22;23627;53.302;-6.362;2022-08-19T03:46:14;14.20;99.90
37788;DHT22;23627;53.302;-6.362;2022-08-19T03:48:42;14.20;99.90
37788;DHT22;23627;53.302;-6.362;2022-08-19T03:51:20;14.10;99.90
37788;DHT22;23627;53.302;-6.362;2022-08-19T03:53:47;14.10;99.90
37788;DHT22;23627;53.302;-6.362;2022-08-19T03:56:13;14.10;99.90
37788;DHT22;23627;53.302;-6.362;2022-08-19T03:58:40;14.10;99.90
37788;DHT22;23627;53.302;-6.362;2022-08-19T04:01:11;14.10;99.90
37788;DHT22;23627;53.302;-6.362;2022-08-19T04:03:38;14.10;99.90
37788;DHT22;23627;53.302;-6.362;2022-08-19T04:08:41;14.10;99.90
37788;DHT22;23627;53.302;-6.362;2022-08-19T04:11:10;14.10;99.90
37788;DHT22;23627;53.302;-6.362;2022-08-19T04:13:36;14.00;99.90
37788;DHT22;23627;53.302;-6.362;2022-08-19T04:16:01;14.10;99.90
37788;DHT22;23627;53.302;-6.362;2022-08-19T04:18:27;14.10;99.90
37788;DHT22;23627;53.302;-6.362;2022-08-19T04:20:55;14.10;99.90
37788;DHT22;23627;53.302;-6.362;2022-08-19T04:23:22;14.00;99.90
37788;DHT22;23627;53.302;-6.362;2022-08-19T04:25:48;14.00;99.90
37788;DHT22;23627;53.302;-6.362;2022-08-19T04:28:14;14.00;99.90
37788;DHT22;23627;53.302;-6.362;2022-08-19T04:30:46;14.10;99.90
37788;DHT22;23627;53.302;-6.362;2022-08-19T04:33:14;14.10;99.90
37788;DHT22;23627;53.302;-6.362;2022-08-19T04:35:44;14.10;99.90
37788;DHT22;23627;53.302;-6.362;2022-08-19T04:38:12;14.00;99.90
37788;DHT22;23627;53.302;-6.362;2022-08-19T04:40:42;14.00;99.90
37788;DHT22;23627;53.302;-6.362;2022-08-19T04:43:28;14.00;99.90
37788;DHT22;23627;53.302;-6.362;2022-08-19T04:45:54;14.00;99.90
37788;DHT22;23627;53.302;-6.362;2022-08-19T04:48:21;14.10;99.90
37788;DHT22;23627;53.302;-6.362;2022-08-19T04:50:54;14.00;99.90
37788;DHT22;23627;53.302;-6.362;2022-08-19T04:53:27;14.10;99.90
37788;DHT22;23627;53.302;-6.362;2022-08-19T04:55:55;14.00;99.90
37788;DHT22;23627;53.302;-6.362;2022-08-19T04:58:22;14.00;99.90
37788;DHT22;23627;53.302;-6.362;2022-08-19T05:00:48;14.00;99.90
37788;DHT22;23627;53.302;-6.362;2022-08-19T05:03:14;14.00;99.90
37788;DHT22;23627;53.302;-6.362;2022-08-19T05:05:44;14.00;99.90
37788;DHT22;23627;53.302;-6.362;2022-08-19T05:08:14;14.00;99.90
37788;DHT22;23627;53.302;-6.362;2022-08-19T05:10:45;13.90;99.90
37788;DHT22;23627;53.302;-6.362;2022-08-19T05:13:11;13.90;99.90
37788;DHT22;23627;53.302;-6.362;2022-08-19T05:15:36;13.90;99.90
37788;DHT22;23627;53.302;-6.362;2022-08-19T05:18:02;13.90;99.90
37788;DHT22;23627;53.302;-6.362;2022-08-19T05:20:46;13.90;99.90
37788;DHT22;23627;53.302;-6.362;2022-08-19T05:23:31;13.90;99.90
37788;DHT22;23627;53.302;-6.362;2022-08-19T05:25:56;13.90;99.90
37788;DHT22;23627;53.302;-6.362;2022-08-19T05:28:22;13.90;99.90
37788;DHT22;23627;53.302;-6.362;2022-08-19T05:30:48;13.90;99.90
37788;DHT22;23627;53.302;-6.362;2022-08-19T05:33:16;13.90;99.90
37788;DHT22;23627;53.302;-6.362;2022-08-19T05:35:42;13.80;99.90
37788;DHT22;23627;53.302;-6.362;2022-08-19T05:38:10;13.80;99.90
37788;DHT22;23627;53.302;-6.362;2022-08-19T05:40:38;13.80;99.90
37788;DHT22;23627;53.302;-6.362;2022-08-19T05:43:05;13.80;99.90
37788;DHT22;23627;53.302;-6.362;2022-08-19T05:45:32;13.80;99.90
37788;DHT22;23627;53.302;-6.362;2022-08-19T05:47:58;13.80;99.90
37788;DHT22;23627;53.302;-6.362;2022-08-19T05:50:24;13.80;99.90
37788;DHT22;23627;53.302;-6.362;2022-08-19T05:52:51;13.70;99.90
37788;DHT22;23627;53.302;-6.362;2022-08-19T05:55:17;13.70;99.90
37788;DHT22;23627;53.302;-6.362;2022-08-19T05:57:45;13.70;99.90
37788;DHT22;23627;53.302;-6.362;2022-08-19T06:00:12;13.70;99.90
37788;DHT22;23627;53.302;-6.362;2022-08-19T06:02:38;13.70;99.90
37788;DHT22;23627;53.302;-6.362;2022-08-19T06:05:05;13.70;99.90
37788;DHT22;23627;53.302;-6.362;2022-08-19T06:07:37;13.70;99.90
37788;DHT22;23627;53.302;-6.362;2022-08-19T06:10:10;13.80;99.90
37788;DHT22;23627;53.302;-6.362;2022-08-19T06:12:36;13.80;99.90
37788;DHT22;23627;53.302;-6.362;2022-08-19T06:15:09;13.90;99.90
37788;DHT22;23627;53.302;-6.362;2022-08-19T06:17:36;13.80;99.90
37788;DHT22;23627;53.302;-6.362;2022-08-19T06:20:08;13.80;99.90
37788;DHT22;23627;53.302;-6.362;2022-08-19T06:22:43;13.90;99.90
37788;DHT22;23627;53.302;-6.362;2022-08-19T06:25:10;13.90;99.90
37788;DHT22;23627;53.302;-6.362;2022-08-19T06:27:37;13.90;99.90
37788;DHT22;23627;53.302;-6.362;2022-08-19T06:30:04;13.90;99.90
37788;DHT22;23627;53.302;-6.362;2022-08-19T06:32:30;13.90;99.90
37788;DHT22;23627;53.302;-6.362;2022-08-19T06:34:57;13.90;99.90
37788;DHT22;23627;53.302;-6.362;2022-08-19T06:37:23;14.00;99.90
37788;DHT22;23627;53.302;-6.362;2022-08-19T06:39:49;14.00;99.90
37788;DHT22;23627;53.302;-6.362;2022-08-19T06:42:15;14.00;99.90
37788;DHT22;23627;53.302;-6.362;2022-08-19T06:44:46;14.00;99.90
37788;DHT22;23627;53.302;-6.362;2022-08-19T06:47:18;14.10;99.90
37788;DHT22;23627;53.302;-6.362;2022-08-19T06:49:44;14.20;99.90
37788;DHT22;23627;53.302;-6.362;2022-08-19T06:52:12;14.20;99.90
37788;DHT22;23627;53.302;-6.362;2022-08-19T06:54:38;14.20;99.90
37788;DHT22;23627;53.302;-6.362;2022-08-19T06:57:05;14.20;99.90
37788;DHT22;23627;53.302;-6.362;2022-08-19T06:59:32;14.20;99.90
37788;DHT22;23627;53.302;-6.362;2022-08-19T07:02:00;14.20;99.90
37788;DHT22;23627;53.302;-6.362;2022-08-19T07:04:29;14.20;99.90
37788;DHT22;23627;53.302;-6.362;2022-08-19T07:06:59;14.20;99.90
37788;DHT22;23627;53.302;-6.362;2022-08-19T07:09:25;14.20;99.90
37788;DHT22;23627;53.302;-6.362;2022-08-19T07:11:53;14.30;99.90
37788;DHT22;23627;53.302;-6.362;2022-08-19T07:14:23;14.40;99.90
37788;DHT22;23627;53.302;-6.362;2022-08-19T07:16:51;14.60;99.90
37788;DHT22;23627;53.302;-6.362;2022-08-19T07:19:19;14.70;99.90
37788;DHT22;23627;53.302;-6.362;2022-08-19T07:21:47;14.80;99.90
37788;DHT22;23627;53.302;-6.362;2022-08-19T07:24:13;14.80;99.90
37788;DHT22;23627;53.302;-6.362;2022-08-19T07:26:41;14.80;99.90
37788;DHT22;23627;53.302;-6.362;2022-08-19T07:29:08;14.80;99.90
37788;DHT22;23627;53.302;-6.362;2022-08-19T07:31:33;14.80;99.90
37788;DHT22;23627;53.302;-6.362;2022-08-19T07:34:03;14.90;99.90
37788;DHT22;23627;53.302;-6.362;2022-08-19T07:36:32;15.00;99.90
37788;DHT22;23627;53.302;-6.362;2022-08-19T07:39:01;15.10;99.90
37788;DHT22;23627;53.302;-6.362;2022-08-19T07:41:29;15.20;99.90
37788;DHT22;23627;53.302;-6.362;2022-08-19T07:43:56;15.30;99.90
37788;DHT22;23627;53.302;-6.362;2022-08-19T07:46:22;15.40;99.90
37788;DHT22;23627;53.302;-6.362;2022-08-19T07:48:49;15.50;99.90
37788;DHT22;23627;53.302;-6.362;2022-08-19T07:51:21;15.70;99.90
37788;DHT22;23627;53.302;-6.362;2022-08-19T07:53:47;15.90;99.90
37788;DHT22;23627;53.302;-6.362;2022-08-19T07:56:18;16.10;99.90
37788;DHT22;23627;53.302;-6.362;2022-08-19T07:58:46;16.30;99.90
37788;DHT22;23627;53.302;-6.362;2022-08-19T08:01:15;16.50;99.90
37788;DHT22;23627;53.302;-6.362;2022-08-19T08:03:42;16.70;99.90
37788;DHT22;23627;53.302;-6.362;2022-08-19T08:06:26;16.80;99.90
37788;DHT22;23627;53.302;-6.362;2022-08-19T08:09:11;17.00;99.90
37788;DHT22;23627;53.302;-6.362;2022-08-19T08:11:39;17.10;99.90
37788;DHT22;23627;53.302;-6.362;2022-08-19T08:14:06;17.20;99.90
37788;DHT22;23627;53.302;-6.362;2022-08-19T08:16:36;17.30;99.90
37788;DHT22;23627;53.302;-6.362;2022-08-19T08:19:06;17.40;99.90
37788;DHT22;23627;53.302;-6.362;2022-08-19T08:21:33;17.50;99.90
37788;DHT22;23627;53.302;-6.362;2022-08-19T08:23:59;17.70;99.90
37788;DHT22;23627;53.302;-6.362;2022-08-19T08:26:25;17.80;99.90
37788;DHT22;23627;53.302;-6.362;2022-08-19T08:28:52;18.00;99.90
37788;DHT22;23627;53.302;-6.362;2022-08-19T08:31:18;18.10;99.90
37788;DHT22;23627;53.302;-6.362;2022-08-19T08:33:44;18.20;99.90
37788;DHT22;23627;53.302;-6.362;2022-08-19T08:36:11;18.40;99.90
37788;DHT22;23627;53.302;-6.362;2022-08-19T08:38:40;18.50;99.90
37788;DHT22;23627;53.302;-6.362;2022-08-19T08:41:33;18.60;99.90
37788;DHT22;23627;53.302;-6.362;2022-08-19T08:44:10;18.70;99.90
37788;DHT22;23627;53.302;-6.362;2022-08-19T08:46:38;18.80;99.90
37788;DHT22;23627;53.302;-6.362;2022-08-19T08:49:24;18.80;99.90
37788;DHT22;23627;53.302;-6.362;2022-08-19T08:51:58;19.00;99.90
37788;DHT22;23627;53.302;-6.362;2022-08-19T08:54:40;19.00;99.90
37788;DHT22;23627;53.302;-6.362;2022-08-19T08:59:57;19.10;99.90
37788;DHT22;23627;53.302;-6.362;2022-08-19T09:02:23;19.10;99.90
37788;DHT22;23627;53.302;-6.362;2022-08-19T09:04:49;19.20;99.90
37788;DHT22;23627;53.302;-6.362;2022-08-19T09:10:29;18.90;99.90
37788;DHT22;23627;53.302;-6.362;2022-08-19T09:15:44;18.80;99.90
37788;DHT22;23627;53.302;-6.362;2022-08-19T09:18:11;18.80;99.90
37788;DHT22;23627;53.302;-6.362;2022-08-19T09:20:37;18.80;99.90
37788;DHT22;23627;53.302;-6.362;2022-08-19T09:23:03;18.80;99.90
37788;DHT22;23627;53.302;-6.362;2022-08-19T09:25:29;18.80;99.90
37788;DHT22;23627;53.302;-6.362;2022-08-19T09:27:58;18.90;99.90
37788;DHT22;23627;53.302;-6.362;2022-08-19T09:30:37;19.10;99.90
37788;DHT22;23627;53.302;-6.362;2022-08-19T09:33:06;19.30;99.90
37788;DHT22;23627;53.302;-6.362;2022-08-19T09:35:33;19.40;99.90
37788;DHT22;23627;53.302;-6.362;2022-08-19T09:37:59;19.40;99.90
37788;DHT22;23627;53.302;-6.362;2022-08-19T09:40:26;19.30;99.90
37788;DHT22;23627;53.302;-6.362;2022-08-19T09:42:52;19.20;99.90
37788;DHT22;23627;53.302;-6.362;2022-08-19T09:45:20;19.10;99.90
37788;DHT22;23627;53.302;-6.362;2022-08-19T09:47:48;19.00;99.90
37788;DHT22;23627;53.302;-6.362;2022-08-19T09:50:14;18.90;99.90
37788;DHT22;23627;53.302;-6.362;2022-08-19T09:52:40;18.80;99.90
37788;DHT22;23627;53.302;-6.362;2022-08-19T09:55:10;18.60;99.90
37788;DHT22;23627;53.302;-6.362;2022-08-19T09:57:36;18.50;99.90
37788;DHT22;23627;53.302;-6.362;2022-08-19T10:00:07;18.30;99.90
37788;DHT22;23627;53.302;-6.362;2022-08-19T10:02:34;18.20;99.90
37788;DHT22;23627;53.302;-6.362;2022-08-19T10:05:00;18.20;99.90
37788;DHT22;23627;53.302;-6.362;2022-08-19T10:07:47;18.00;99.90
37788;DHT22;23627;53.302;-6.362;2022-08-19T10:10:13;18.00;99.90
37788;DHT22;23627;53.302;-6.362;2022-08-19T10:12:39;18.00;99.90
37788;DHT22;23627;53.302;-6.362;2022-08-19T10:15:05;17.90;99.90
37788;DHT22;23627;53.302;-6.362;2022-08-19T10:17:31;17.80;99.90
37788;DHT22;23627;53.302;-6.362;2022-08-19T10:20:05;17.90;99.90
37788;DHT22;23627;53.302;-6.362;2022-08-19T10:22:31;18.00;99.90
37788;DHT22;23627;53.302;-6.362;2022-08-19T10:24:57;18.00;99.90
37788;DHT22;23627;53.302;-6.362;2022-08-19T10:27:23;17.90;99.90
37788;DHT22;23627;53.302;-6.362;2022-08-19T10:29:49;17.80;99.90
37788;DHT22;23627;53.302;-6.362;2022-08-19T10:32:15;17.80;99.90
37788;DHT22;23627;53.302;-6.362;2022-08-19T10:34:41;18.00;99.90
37788;DHT22;23627;53.302;-6.362;2022-08-19T10:37:07;18.10;99.90
37788;DHT22;23627;53.302;-6.362;2022-08-19T10:39:35;18.30;99.90
37788;DHT22;23627;53.302;-6.362;2022-08-19T10:42:07;18.30;99.90
37788;DHT22;23627;53.302;-6.362;2022-08-19T10:44:36;18.40;99.90
37788;DHT22;23627;53.302;-6.362;2022-08-19T10:47:02;18.40;99.90
37788;DHT22;23627;53.302;-6.362;2022-08-19T10:49:29;18.20;99.90
37788;DHT22;23627;53.302;-6.362;2022-08-19T10:51:56;18.10;99.90
37788;DHT22;23627;53.302;-6.362;2022-08-19T10:54:41;18.10;99.90
37788;DHT22;23627;53.302;-6.362;2022-08-19T10:57:25;18.00;99.90
37788;DHT22;23627;53.302;-6.362;2022-08-19T10:59:55;18.10;99.90
37788;DHT22;23627;53.302;-6.362;2022-08-19T11:02:21;18.00;99.90
37788;DHT22;23627;53.302;-6.362;2022-08-19T11:04:47;17.90;99.90
37788;DHT22;23627;53.302;-6.362;2022-08-19T11:07:15;18.00;99.90
37788;DHT22;23627;53.302;-6.362;2022-08-19T11:09:42;18.00;99.90
37788;DHT22;23627;53.302;-6.362;2022-08-19T11:12:09;18.00;99.90
37788;DHT22;23627;53.302;-6.362;2022-08-19T11:14:35;18.10;99.90
37788;DHT22;23627;53.302;-6.362;2022-08-19T11:17:02;18.30;99.90
37788;DHT22;23627;53.302;-6.362;2022-08-19T11:19:29;18.40;99.90
37788;DHT22;23627;53.302;-6.362;2022-08-19T11:22:00;18.50;99.90
37788;DHT22;23627;53.302;-6.362;2022-08-19T11:24:27;18.70;99.90
37788;DHT22;23627;53.302;-6.362;2022-08-19T11:27:02;18.80;99.90
37788;DHT22;23627;53.302;-6.362;2022-08-19T11:29:30;18.80;99.90
37788;DHT22;23627;53.302;-6.362;2022-08-19T11:31:56;18.90;99.90
37788;DHT22;23627;53.302;-6.362;2022-08-19T11:34:25;18.90;99.90
37788;DHT22;23627;53.302;-6.362;2022-08-19T11:36:52;19.00;99.90
37788;DHT22;23627;53.302;-6.362;2022-08-19T11:39:21;19.10;99.90
37788;DHT22;23627;53.302;-6.362;2022-08-19T11:41:48;19.10;99.90
37788;DHT22;23627;53.302;-6.362;2022-08-19T11:44:14;19.10;99.90
37788;DHT22;23627;53.302;-6.362;2022-08-19T11:46:42;19.40;99.90
37788;DHT22;23627;53.302;-6.362;2022-08-19T11:49:14;19.60;99.90
37788;DHT22;23627;53.302;-6.362;2022-08-19T11:51:44;19.70;99.90
37788;DHT22;23627;53.302;-6.362;2022-08-19T11:54:14;19.70;99.90
37788;DHT22;23627;53.302;-6.362;2022-08-19T11:56:41;19.80;99.90
37788;DHT22;23627;53.302;-6.362;2022-08-19T11:59:07;20.00;99.90
37788;DHT22;23627;53.302;-6.362;2022-08-19T12:01:34;20.00;99.90
37788;DHT22;23627;53.302;-6.362;2022-08-19T12:04:00;19.90;99.90
37788;DHT22;23627;53.302;-6.362;2022-08-19T12:06:30;19.90;99.90
37788;DHT22;23627;53.302;-6.362;2022-08-19T12:08:59;19.90;99.90
37788;DHT22;23627;53.302;-6.362;2022-08-19T12:11:25;19.80;99.90
37788;DHT22;23627;53.302;-6.362;2022-08-19T12:13:52;19.80;99.90
37788;DHT22;23627;53.302;-6.362;2022-08-19T12:16:21;19.80;99.90
37788;DHT22;23627;53.302;-6.362;2022-08-19T12:18:49;19.90;99.90
37788;DHT22;23627;53.302;-6.362;2022-08-19T12:21:20;20.00;99.90
37788;DHT22;23627;53.302;-6.362;2022-08-19T12:23:50;20.10;99.90
37788;DHT22;23627;53.302;-6.362;2022-08-19T12:26:17;20.00;99.90
37788;DHT22;23627;53.302;-6.362;2022-08-19T12:28:43;20.00;99.90
37788;DHT22;23627;53.302;-6.362;2022-08-19T12:31:10;20.10;99.90
37788;DHT22;23627;53.302;-6.362;2022-08-19T12:33:38;20.00;99.90
37788;DHT22;23627;53.302;-6.362;2022-08-19T12:36:06;19.90;99.90
37788;DHT22;23627;53.302;-6.362;2022-08-19T12:38:33;19.90;99.90
37788;DHT22;23627;53.302;-6.362;2022-08-19T12:41:00;19.90;99.90
37788;DHT22;23627;53.302;-6.362;2022-08-19T12:43:26;19.90;99.90
37788;DHT22;23627;53.302;-6.362;2022-08-19T12:45:52;19.90;99.90
37788;DHT22;23627;53.302;-6.362;2022-08-19T12:48:21;19.80;99.90
37788;DHT22;23627;53.302;-6.362;2022-08-19T12:50:47;19.80;99.90
37788;DHT22;23627;53.302;-6.362;2022-08-19T12:53:13;19.70;99.90
37788;DHT22;23627;53.302;-6.362;2022-08-19T12:55:41;19.70;99.90
37788;DHT22;23627;53.302;-6.362;2022-08-19T12:58:10;19.70;99.90
37788;DHT22;23627;53.302;-6.362;2022-08-19T13:00:38;19.70;99.90
37788;DHT22;23627;53.302;-6.362;2022-08-19T13:03:04;19.60;99.90
37788;DHT22;23627;53.302;-6.362;2022-08-19T13:05:32;19.70;99.90
37788;DHT22;23627;53.302;-6.362;2022-08-19T13:08:02;19.80;99.90
37788;DHT22;23627;53.302;-6.362;2022-08-19T13:10:31;19.90;99.90
37788;DHT22;23627;53.302;-6.362;2022-08-19T13:13:00;19.90;99.90
37788;DHT22;23627;53.302;-6.362;2022-08-19T13:15:27;19.90;99.90
37788;DHT22;23627;53.302;-6.362;2022-08-19T13:17:54;19.90;99.90
37788;DHT22;23627;53.302;-6.362;2022-08-19T13:20:21;19.90;99.90
37788;DHT22;23627;53.302;-6.362;2022-08-19T13:22:48;20.00;99.90
37788;DHT22;23627;53.302;-6.362;2022-08-19T13:25:15;20.00;99.90
37788;DHT22;23627;53.302;-6.362;2022-08-19T13:27:43;20.10;99.90
37788;DHT22;23627;53.302;-6.362;2022-08-19T13:30:11;20.20;99.90
37788;DHT22;23627;53.302;-6.362;2022-08-19T13:32:57;20.40;99.90
37788;DHT22;23627;53.302;-6.362;2022-08-19T13:35:50;20.40;99.90
37788;DHT22;23627;53.302;-6.362;2022-08-19T13:38:23;20.40;99.90
37788;DHT22;23627;53.302;-6.362;2022-08-19T13:40:51;20.50;99.90
37788;DHT22;23627;53.302;-6.362;2022-08-19T13:43:19;20.50;99.90
37788;DHT22;23627;53.302;-6.362;2022-08-19T13:45:47;20.50;99.90
37788;DHT22;23627;53.302;-6.362;2022-08-19T13:48:15;20.60;99.90
37788;DHT22;23627;53.302;-6.362;2022-08-19T13:50:44;20.90;99.90
37788;DHT22;23627;53.302;-6.362;2022-08-19T13:53:14;21.00;99.90
37788;DHT22;23627;53.302;-6.362;2022-08-19T13:55:41;21.00;99.90
37788;DHT22;23627;53.302;-6.362;2022-08-19T13:58:08;21.10;99.90
37788;DHT22;23627;53.302;-6.362;2022-08-19T14:00:38;21.10;99.90
37788;DHT22;23627;53.302;-6.362;2022-08-19T14:03:08;21.20;99.90
37788;DHT22;23627;53.302;-6.362;2022-08-19T14:05:34;21.20;99.90
37788;DHT22;23627;53.302;-6.362;2022-08-19T14:08:00;21.20;99.90
37788;DHT22;23627;53.302;-6.362;2022-08-19T14:10:28;21.20;99.90
37788;DHT22;23627;53.302;-6.362;2022-08-19T14:12:57;21.20;99.90
37788;DHT22;23627;53.302;-6.362;2022-08-19T14:15:26;21.30;99.90
37788;DHT22;23627;53.302;-6.362;2022-08-19T14:17:53;21.30;99.90
37788;DHT22;23627;53.302;-6.362;2022-08-19T14:20:19;21.30;99.90
37788;DHT22;23627;53.302;-6.362;2022-08-19T14:22:47;21.30;99.90
37788;DHT22;23627;53.302;-6.362;2022-08-19T14:25:16;21.20;99.90
37788;DHT22;23627;53.302;-6.362;2022-08-19T14:27:49;21.10;99.90
37788;DHT22;23627;53.302;-6.362;2022-08-19T14:30:22;21.00;99.90
37788;DHT22;23627;53.302;-6.362;2022-08-19T14:32:48;20.80;99.90
37788;DHT22;23627;53.302;-6.362;2022-08-19T14:35:17;20.70;99.90
37788;DHT22;23627;53.302;-6.362;2022-08-19T14:37:44;20.40;99.90
37788;DHT22;23627;53.302;-6.362;2022-08-19T14:40:11;20.20;99.90
37788;DHT22;23627;53.302;-6.362;2022-08-19T14:42:38;20.10;99.90
37788;DHT22;23627;53.302;-6.362;2022-08-19T14:45:04;20.10;99.90
37788;DHT22;23627;53.302;-6.362;2022-08-19T14:47:32;20.00;99.90
37788;DHT22;23627;53.302;-6.362;2022-08-19T14:49:58;19.90;99.90
37788;DHT22;23627;53.302;-6.362;2022-08-19T14:52:24;19.80;99.90
37788;DHT22;23627;53.302;-6.362;2022-08-19T14:54:50;19.60;99.90
37788;DHT22;23627;53.302;-6.362;2022-08-19T14:57:16;19.50;99.90
37788;DHT22;23627;53.302;-6.362;2022-08-19T14:59:43;19.40;99.90
37788;DHT22;23627;53.302;-6.362;2022-08-19T15:02:10;19.30;99.90
37788;DHT22;23627;53.302;-6.362;2022-08-19T15:04:35;19.30;99.90
37788;DHT22;23627;53.302;-6.362;2022-08-19T15:07:01;19.20;99.90
37788;DHT22;23627;53.302;-6.362;2022-08-19T15:09:30;19.10;99.90
37788;DHT22;23627;53.302;-6.362;2022-08-19T15:11:56;19.20;99.90
37788;DHT22;23627;53.302;-6.362;2022-08-19T15:14:25;19.10;99.90
37788;DHT22;23627;53.302;-6.362;2022-08-19T15:16:50;19.10;99.90
37788;DHT22;23627;53.302;-6.362;2022-08-19T15:19:16;19.10;99.90
37788;DHT22;23627;53.302;-6.362;2022-08-19T15:21:43;19.00;99.90
37788;DHT22;23627;53.302;-6.362;2022-08-19T15:24:09;19.00;99.90
37788;DHT22;23627;53.302;-6.362;2022-08-19T15:26:35;19.10;99.90
37788;DHT22;23627;53.302;-6.362;2022-08-19T15:29:01;19.20;99.90
37788;DHT22;23627;53.302;-6.362;2022-08-19T15:31:28;19.30;99.90
37788;DHT22;23627;53.302;-6.362;2022-08-19T15:33:58;19.40;99.90